Hanseatic Scout — V2BM2 — position and weather

sailwx.info

Track history (hours):
 
Tides and Currents Weather Stations Pressure Air Temp Water Temp Dewpoint Dewpoint Depression Visibility Wind Speed Wind Dir Waves Ship Positions

Hanseatic Scout

Last reported at 2017-Jan-23 03:25 UTC. Time now 2017-Jan-23 10:39 UTC.
Position N 54°37' W 005°55'.

Length 89 m; draft 6.4 m.

Type: Ship. MMSI: 304867000.

Date/timePositionNaut miles runAvg speedWind from/ knotsBaromVisibWave heightAir tempDewpointWater temp
2017-Jan-23 03:25N 54°37' W 005°55'0 0.0
2017-Jan-22 23:33N 54°37' W 005°55'0 0.0
2017-Jan-22 22:33N 54°37' W 005°55'0 0.0
2017-Jan-22 21:15N 54°37' W 005°55'0 0.0
2017-Jan-22 20:33N 54°37' W 005°55'0 0.0
2017-Jan-22 19:33N 54°37' W 005°55'0 0.0
2017-Jan-22 15:32N 54°37' W 005°55'6 5.9
2017-Jan-22 14:34N 54°41' W 005°48'10 9.7
2017-Jan-22 13:34N 54°47' W 005°35'1010.4
2017-Jan-22 12:33N 54°58' W 005°39'19 9.4
2017-Jan-22 10:33N 55°13' W 005°58'8 8.3
2017-Jan-22 09:33N 55°20' W 006°06'9 8.9
2017-Jan-22 08:33N 55°23' W 006°21'9 8.8
2017-Jan-22 07:34N 55°28' W 006°34'1010.3
2017-Jan-22 06:33N 55°37' W 006°42'1110.7
2017-Jan-22 05:33N 55°46' W 006°52'  
2017-Jan-18 17:06N 63°26' E 007°19'7 3.9
2017-Jan-18 15:12N 63°32' E 007°30'192 5.7
2017-Jan-17 05:17N 66°15' E 011°30'6 7.8
2017-Jan-17 04:33N 66°16' E 011°44'8 8.1
2017-Jan-17 03:34N 66°16' E 012°04'8 7.9
2017-Jan-17 02:33N 66°16' E 012°23'8 8.2
2017-Jan-17 01:34N 66°18' E 012°43'8 8.5
2017-Jan-17 00:33N 66°23' E 012°58'9 8.7
2017-Jan-16 23:33N 66°32' E 012°58'9 8.5
2017-Jan-16 22:34N 66°40' E 013°07'19 0.5
2017-Jan-15 05:26N 66°57' E 013°28'7 8.6
2017-Jan-15 04:34N 67°00' E 013°45'1111.0
2017-Jan-15 03:33N 67°09' E 014°02'1110.6
2017-Jan-15 02:33N 67°14' E 013°37'5110.1
2017-Jan-14 21:30N 66°41' E 011°58'1111.1
2017-Jan-14 20:33N 66°32' E 011°45'12 8.7
2017-Jan-14 19:09N 66°20' E 011°37'2 3.1
2017-Jan-14 18:33N 66°18' E 011°38'184 9.5
2017-Jan-13 23:12N 63°43' E 007°45'4 6.8
2017-Jan-13 22:33N 63°39' E 007°41'7 6.2
2017-Jan-13 21:29N 63°32' E 007°36'6 6.8
2017-Jan-13 20:34N 63°26' E 007°34'7 7.2
2017-Jan-13 19:33N 63°19' E 007°34'7 6.8
2017-Jan-13 18:34N 63°13' E 007°42'7 7.0
2017-Jan-13 17:34N 63°06' E 007°41'3 2.9
2017-Jan-13 16:31N 63°03' E 007°40'0 0.0
2017-Jan-13 15:33N 63°03' E 007°39'0 0.0
2017-Jan-13 14:33N 63°03' E 007°39'0 0.0
2017-Jan-13 13:33N 63°03' E 007°39'0 0.0
2017-Jan-13 12:33N 63°03' E 007°39'0 0.0
2017-Jan-13 11:33N 63°03' E 007°39'0 0.0
2017-Jan-13 10:33N 63°03' E 007°40'0 0.0
2017-Jan-13 09:33N 63°03' E 007°39'0 0.0
2017-Jan-13 08:33N 63°03' E 007°39'0 0.0
2017-Jan-13 07:33N 63°03' E 007°39'0 0.0
2017-Jan-13 06:33N 63°03' E 007°39'0 0.0
2017-Jan-13 05:33N 63°03' E 007°39'0 0.0
2017-Jan-13 04:33N 63°03' E 007°39'0 0.0
2017-Jan-13 03:33N 63°03' E 007°39'  
Track history (hours):
 
Tides and Currents Weather Stations Pressure Air Temp Water Temp Dewpoint Dewpoint Depression Visibility Wind Speed Wind Dir Waves Ship Positions

Hanseatic Scout

Last reported at 2017-Jan-23 03:25 UTC. Time now 2017-Jan-23 10:39 UTC.
Position N 54°37' W 005°55'.

Length 89 m; draft 6.4 m.

Type: Ship. MMSI: 304867000.

Date/timePositionNaut miles runAvg speedWind from/ knotsBaromVisibWave heightAir tempDewpointWater temp
2017-Jan-23 03:25N 54°37' W 005°55'0 0.0
2017-Jan-22 23:33N 54°37' W 005°55'0 0.0
2017-Jan-22 22:33N 54°37' W 005°55'0 0.0
2017-Jan-22 21:15N 54°37' W 005°55'0 0.0
2017-Jan-22 20:33N 54°37' W 005°55'0 0.0
2017-Jan-22 19:33N 54°37' W 005°55'0 0.0
2017-Jan-22 15:32N 54°37' W 005°55'6 5.9
2017-Jan-22 14:34N 54°41' W 005°48'10 9.7
2017-Jan-22 13:34N 54°47' W 005°35'1010.4
2017-Jan-22 12:33N 54°58' W 005°39'19 9.4
2017-Jan-22 10:33N 55°13' W 005°58'8 8.3
2017-Jan-22 09:33N 55°20' W 006°06'9 8.9
2017-Jan-22 08:33N 55°23' W 006°21'9 8.8
2017-Jan-22 07:34N 55°28' W 006°34'1010.3
2017-Jan-22 06:33N 55°37' W 006°42'1110.7
2017-Jan-22 05:33N 55°46' W 006°52'  
2017-Jan-18 17:06N 63°26' E 007°19'7 3.9
2017-Jan-18 15:12N 63°32' E 007°30'192 5.7
2017-Jan-17 05:17N 66°15' E 011°30'6 7.8
2017-Jan-17 04:33N 66°16' E 011°44'8 8.1
2017-Jan-17 03:34N 66°16' E 012°04'8 7.9
2017-Jan-17 02:33N 66°16' E 012°23'8 8.2
2017-Jan-17 01:34N 66°18' E 012°43'8 8.5
2017-Jan-17 00:33N 66°23' E 012°58'9 8.7
2017-Jan-16 23:33N 66°32' E 012°58'9 8.5
2017-Jan-16 22:34N 66°40' E 013°07'19 0.5
2017-Jan-15 05:26N 66°57' E 013°28'7 8.6
2017-Jan-15 04:34N 67°00' E 013°45'1111.0
2017-Jan-15 03:33N 67°09' E 014°02'1110.6
2017-Jan-15 02:33N 67°14' E 013°37'5110.1
2017-Jan-14 21:30N 66°41' E 011°58'1111.1
2017-Jan-14 20:33N 66°32' E 011°45'12 8.7
2017-Jan-14 19:09N 66°20' E 011°37'2 3.1
2017-Jan-14 18:33N 66°18' E 011°38'184 9.5
2017-Jan-13 23:12N 63°43' E 007°45'4 6.8
2017-Jan-13 22:33N 63°39' E 007°41'7 6.2
2017-Jan-13 21:29N 63°32' E 007°36'6 6.8
2017-Jan-13 20:34N 63°26' E 007°34'7 7.2
2017-Jan-13 19:33N 63°19' E 007°34'7 6.8
2017-Jan-13 18:34N 63°13' E 007°42'7 7.0
2017-Jan-13 17:34N 63°06' E 007°41'3 2.9
2017-Jan-13 16:31N 63°03' E 007°40'0 0.0
2017-Jan-13 15:33N 63°03' E 007°39'0 0.0
2017-Jan-13 14:33N 63°03' E 007°39'0 0.0
2017-Jan-13 13:33N 63°03' E 007°39'0 0.0
2017-Jan-13 12:33N 63°03' E 007°39'0 0.0
2017-Jan-13 11:33N 63°03' E 007°39'0 0.0
2017-Jan-13 10:33N 63°03' E 007°40'0 0.0
2017-Jan-13 09:33N 63°03' E 007°39'0 0.0
2017-Jan-13 08:33N 63°03' E 007°39'0 0.0
2017-Jan-13 07:33N 63°03' E 007°39'0 0.0
2017-Jan-13 06:33N 63°03' E 007°39'0 0.0
2017-Jan-13 05:33N 63°03' E 007°39'0 0.0
2017-Jan-13 04:33N 63°03' E 007°39'0 0.0
2017-Jan-13 03:33N 63°03' E 007°39'  

Dump ship's entire track history